createdAt,value
2019-05-15T00:00:09.068Z,23.17
2019-05-15T00:02:44.141Z,23.14
2019-05-15T00:05:18.821Z,23.16
2019-05-15T00:07:52.473Z,23.12
2019-05-15T00:10:25.882Z,23.10
2019-05-15T00:12:59.286Z,23.08
2019-05-15T00:15:32.662Z,23.43
2019-05-15T00:18:05.994Z,23.22
2019-05-15T00:20:39.798Z,23.14
2019-05-15T00:23:13.170Z,23.08
2019-05-15T00:25:48.775Z,23.10
2019-05-15T00:28:21.633Z,23.02
2019-05-15T00:30:58.290Z,22.99
2019-05-15T00:33:31.231Z,22.97
2019-05-15T00:36:04.610Z,22.95
2019-05-15T00:38:39.027Z,22.94
2019-05-15T00:41:12.658Z,22.92
2019-05-15T00:43:45.872Z,22.91
2019-05-15T00:46:19.193Z,22.90
2019-05-15T00:48:52.507Z,22.86
2019-05-15T00:51:28.310Z,22.87
2019-05-15T00:54:01.065Z,22.85
2019-05-15T00:56:34.398Z,22.82
2019-05-15T00:59:08.399Z,22.81
2019-05-15T01:01:41.751Z,22.82
2019-05-15T01:04:15.061Z,22.80
2019-05-15T01:06:49.794Z,22.76
2019-05-15T01:09:23.461Z,22.76
2019-05-15T01:11:58.712Z,22.74
2019-05-15T01:14:31.844Z,22.74
2019-05-15T01:17:08.871Z,22.72
2019-05-15T01:19:41.401Z,22.69
2019-05-15T01:22:14.758Z,22.70
2019-05-15T01:24:48.526Z,22.69
2019-05-15T01:27:22.109Z,22.69
2019-05-15T01:29:55.556Z,22.66
2019-05-15T01:32:28.862Z,22.67
2019-05-15T01:35:02.248Z,22.64
2019-05-15T01:37:39.074Z,22.61
2019-05-15T01:40:12.356Z,22.61
2019-05-15T01:42:45.688Z,22.59
2019-05-15T01:45:19.046Z,22.57
2019-05-15T01:47:52.185Z,22.57
2019-05-15T01:50:25.524Z,22.57
2019-05-15T01:52:58.845Z,22.56
2019-05-15T01:55:32.315Z,22.53
2019-05-15T01:58:05.661Z,22.53
2019-05-15T02:00:40.040Z,22.51
2019-05-15T02:03:13.348Z,22.48
2019-05-15T02:05:48.071Z,22.47
2019-05-15T02:08:22.815Z,22.46
2019-05-15T02:10:58.621Z,22.48
2019-05-15T02:13:31.181Z,22.47
2019-05-15T02:16:04.708Z,22.43
2019-05-15T02:18:39.074Z,22.42
2019-05-15T02:21:12.667Z,22.40
2019-05-15T02:23:48.196Z,22.40
2019-05-15T02:26:21.307Z,22.37
2019-05-15T02:28:54.672Z,22.38
2019-05-15T02:31:30.275Z,22.37
2019-05-15T02:34:03.393Z,22.37
2019-05-15T02:36:39.756Z,22.35
2019-05-15T02:39:11.785Z,22.33
2019-05-15T02:41:45.156Z,22.33
2019-05-15T02:44:20.329Z,22.33
2019-05-15T02:46:53.691Z,22.30
2019-05-15T02:49:29.909Z,22.30
2019-05-15T02:52:02.045Z,22.31
2019-05-15T02:54:35.517Z,22.29
2019-05-15T02:57:09.766Z,22.28
2019-05-15T02:59:43.386Z,22.28
2019-05-15T03:02:19.106Z,22.26
2019-05-15T03:04:51.765Z,22.23
2019-05-15T03:07:25.208Z,22.20
2019-05-15T03:09:59.995Z,22.22
2019-05-15T03:12:33.567Z,22.20
2019-05-15T03:15:09.566Z,22.20
2019-05-15T03:17:41.910Z,22.16
2019-05-15T03:20:18.521Z,22.15
2019-05-15T03:22:50.328Z,22.13
2019-05-15T03:25:23.641Z,22.14
2019-05-15T03:27:59.594Z,22.12
2019-05-15T03:30:41.845Z,22.11
2019-05-15T03:33:15.803Z,22.11
2019-05-15T03:35:44.127Z,22.09
2019-05-15T03:38:19.305Z,22.09
2019-05-15T03:40:52.457Z,22.08
2019-05-15T03:43:28.946Z,22.07
2019-05-15T03:46:01.872Z,22.07
2019-05-15T03:48:35.409Z,22.07
2019-05-15T03:51:09.341Z,22.07
2019-05-15T03:53:42.841Z,22.09
2019-05-15T03:56:18.891Z,22.08
2019-05-15T03:58:51.309Z,22.04
2019-05-15T04:01:36.656Z,22.03
2019-05-15T04:04:00.003Z,21.58
2019-05-15T04:06:33.401Z,22.03
2019-05-15T04:09:09.667Z,22.17
2019-05-15T04:11:41.934Z,22.31
2019-05-15T04:14:15.328Z,22.42
2019-05-15T04:16:49.784Z,22.55
2019-05-15T04:19:23.486Z,22.64
2019-05-15T04:21:59.788Z,22.75
2019-05-15T04:24:31.830Z,22.88
2019-05-15T04:27:07.201Z,23.06
2019-05-15T04:29:41.780Z,23.22
2019-05-15T04:32:15.082Z,23.32
2019-05-15T04:34:48.986Z,23.40
2019-05-15T04:37:22.458Z,23.43
2019-05-15T04:39:55.826Z,23.51
2019-05-15T04:42:30.034Z,23.51
2019-05-15T04:45:09.645Z,23.56
2019-05-15T04:47:40.726Z,23.58
2019-05-15T04:50:14.062Z,23.59
2019-05-15T04:52:50.123Z,23.52
2019-05-15T04:55:22.774Z,23.86
2019-05-15T04:57:58.995Z,23.71
2019-05-15T05:00:51.338Z,23.69
2019-05-15T05:03:24.823Z,23.66
2019-05-15T05:05:59.486Z,23.61
2019-05-15T05:08:32.856Z,23.58
2019-05-15T05:11:09.437Z,23.80
2019-05-15T05:13:41.383Z,23.71
2019-05-15T05:16:19.402Z,23.70
2019-05-15T05:18:52.805Z,23.65
2019-05-15T05:21:27.805Z,23.63
2019-05-15T05:24:01.358Z,23.54
2019-05-15T05:26:34.775Z,23.44
2019-05-15T05:29:08.736Z,23.44
2019-05-15T05:31:42.187Z,23.45
2019-05-15T05:34:15.751Z,23.42
2019-05-15T05:36:49.046Z,23.46
2019-05-15T05:39:22.514Z,23.86
2019-05-15T05:41:55.900Z,23.67
2019-05-15T05:44:29.400Z,23.63
2019-05-15T05:47:02.763Z,23.65
2019-05-15T05:49:38.086Z,23.61
2019-05-15T05:52:11.097Z,23.68
2019-05-15T05:54:44.477Z,23.64
2019-05-15T05:57:19.362Z,23.62
2019-05-15T05:59:53.324Z,23.53
2019-05-15T06:02:27.995Z,23.86
2019-05-15T06:05:01.443Z,23.71
2019-05-15T06:07:38.402Z,23.66
2019-05-15T06:10:10.984Z,23.68
2019-05-15T06:12:44.619Z,23.61
2019-05-15T06:15:18.082Z,23.65
2019-05-15T06:17:51.528Z,23.61
2019-05-15T06:20:24.939Z,23.64
2019-05-15T06:22:58.260Z,23.60
2019-05-15T06:25:31.872Z,23.56
2019-05-15T06:28:06.268Z,23.55
2019-05-15T06:30:39.649Z,23.65
2019-05-15T06:33:13.626Z,23.68
2019-05-15T06:35:49.014Z,23.59
2019-05-15T06:38:23.838Z,23.80
2019-05-15T06:40:58.257Z,23.80
2019-05-15T06:43:31.864Z,23.75
2019-05-15T06:46:05.767Z,23.68
2019-05-15T06:48:39.094Z,23.66
2019-05-15T06:51:12.468Z,23.71
2019-05-15T06:53:49.120Z,23.69
2019-05-15T06:56:24.595Z,23.73
2019-05-15T06:58:58.253Z,23.73
2019-05-15T07:01:31.782Z,23.76
2019-05-15T07:04:05.095Z,23.83
2019-05-15T07:06:38.490Z,23.89
2019-05-15T07:09:11.818Z,23.89
2019-05-15T07:11:45.150Z,23.88
2019-05-15T07:14:19.521Z,23.97
2019-05-15T07:16:52.877Z,23.99
2019-05-15T07:19:28.377Z,24.01
2019-05-15T07:22:01.430Z,24.39
2019-05-15T07:24:34.737Z,24.24
2019-05-15T07:27:10.777Z,24.25
2019-05-15T07:29:44.094Z,24.27
2019-05-15T07:32:19.269Z,24.32
2019-05-15T07:34:53.628Z,24.74
2019-05-15T07:37:29.004Z,24.58
2019-05-15T07:40:04.513Z,24.61
2019-05-15T07:42:38.920Z,24.59
2019-05-15T07:45:13.428Z,24.61
2019-05-15T07:47:48.943Z,24.66
2019-05-15T07:50:21.985Z,24.75
2019-05-15T07:52:55.331Z,24.76
2019-05-15T07:55:29.613Z,24.80
2019-05-15T07:58:03.214Z,24.87
2019-05-15T08:00:39.441Z,24.89
2019-05-15T08:03:13.872Z,24.86
2019-05-15T08:05:58.011Z,24.95
2019-05-15T08:08:22.302Z,24.94
2019-05-15T08:10:57.812Z,24.94
2019-05-15T08:13:30.657Z,24.99
2019-05-15T08:16:05.229Z,25.00
2019-05-15T08:18:40.188Z,25.03
2019-05-15T08:21:18.588Z,25.08
2019-05-15T08:23:51.794Z,25.10
2019-05-15T08:26:25.226Z,25.16
2019-05-15T08:28:58.537Z,25.20
2019-05-15T08:31:31.957Z,25.20
2019-05-15T08:34:15.331Z,25.22
2019-05-15T08:36:40.287Z,25.21
2019-05-15T08:39:13.609Z,25.23
2019-05-15T08:41:48.435Z,25.26
2019-05-15T08:44:21.976Z,25.27
2019-05-15T08:46:55.624Z,25.30
2019-05-15T08:49:28.921Z,25.33
2019-05-15T08:52:02.290Z,25.35
2019-05-15T08:54:38.238Z,25.34
2019-05-15T08:57:10.857Z,25.34
2019-05-15T08:59:44.002Z,25.36
2019-05-15T09:02:18.548Z,25.38
2019-05-15T09:04:52.066Z,25.41
2019-05-15T09:07:25.665Z,25.37
2019-05-15T09:09:58.995Z,25.35
2019-05-15T09:12:32.413Z,25.39
2019-05-15T09:15:09.114Z,25.40
2019-05-15T09:17:43.503Z,25.42
2019-05-15T09:20:19.226Z,25.33
2019-05-15T09:22:53.441Z,25.38
2019-05-15T09:25:28.740Z,25.32
2019-05-15T09:28:01.800Z,25.33
2019-05-15T09:30:35.206Z,25.35
2019-05-15T09:33:08.863Z,25.81
2019-05-15T09:35:42.266Z,25.55
2019-05-15T09:38:18.165Z,25.74
2019-05-15T09:40:51.256Z,25.50
2019-05-15T09:43:24.839Z,25.51
2019-05-15T09:45:58.432Z,25.39
2019-05-15T09:48:31.920Z,25.38
2019-05-15T09:51:05.322Z,25.57
2019-05-15T09:53:39.504Z,25.48
2019-05-15T09:56:13.074Z,25.41
2019-05-15T09:58:48.612Z,25.43
2019-05-15T10:01:22.909Z,25.42
2019-05-15T10:03:56.280Z,25.37
2019-05-15T10:06:29.598Z,25.40
2019-05-15T10:09:04.614Z,25.39
2019-05-15T10:11:38.340Z,25.40
2019-05-15T10:14:12.820Z,25.35
2019-05-15T10:16:48.097Z,25.35
2019-05-15T10:19:21.276Z,25.33
2019-05-15T10:21:54.608Z,25.31
2019-05-15T10:24:28.942Z,25.32
2019-05-15T10:27:02.262Z,25.31
2019-05-15T10:29:35.664Z,25.23
2019-05-15T10:32:08.996Z,25.50
2019-05-15T10:34:42.352Z,25.33
2019-05-15T10:37:18.394Z,25.27
2019-05-15T10:39:52.851Z,25.59
2019-05-15T10:42:28.778Z,25.33
2019-05-15T10:45:00.944Z,25.14
2019-05-15T10:47:34.547Z,25.14
2019-05-15T10:50:09.209Z,25.13
2019-05-15T10:52:43.937Z,25.10
2019-05-15T10:55:18.917Z,25.06
2019-05-15T10:57:52.591Z,25.01
2019-05-15T11:00:28.342Z,25.02
2019-05-15T11:03:00.928Z,25.00
2019-05-15T11:05:41.841Z,24.96
2019-05-15T11:08:09.291Z,24.93
2019-05-15T11:10:42.899Z,24.98
2019-05-15T11:13:18.590Z,25.05
2019-05-15T11:15:51.443Z,25.02
2019-05-15T11:18:24.844Z,24.97
2019-05-15T11:20:59.306Z,25.17
2019-05-15T11:23:39.461Z,24.98
2019-05-15T11:26:12.977Z,25.01
2019-05-15T11:28:49.416Z,25.03
2019-05-15T11:31:24.694Z,25.02
2019-05-15T11:33:58.569Z,25.01
2019-05-15T11:36:32.044Z,24.90
2019-05-15T11:39:08.355Z,24.99
2019-05-15T11:41:41.531Z,24.92
2019-05-15T11:44:14.924Z,25.02
2019-05-15T11:46:49.632Z,24.98
2019-05-15T11:49:23.251Z,24.92
2019-05-15T11:52:00.545Z,24.97
2019-05-15T11:54:31.969Z,24.83
2019-05-15T11:57:08.452Z,24.87
2019-05-15T11:59:45.001Z,24.94
2019-05-15T12:02:18.849Z,24.95
2019-05-15T12:04:51.281Z,24.92
2019-05-15T12:07:24.902Z,24.96
2019-05-15T12:09:58.235Z,24.93
2019-05-15T12:12:32.143Z,25.01
2019-05-15T12:15:06.082Z,25.01
2019-05-15T12:17:39.759Z,24.88
2019-05-15T12:20:13.112Z,24.94
2019-05-15T12:22:48.571Z,24.94
2019-05-15T12:25:21.774Z,24.94
2019-05-15T12:27:55.140Z,24.93
2019-05-15T12:33:03.699Z,25.23
2019-05-15T12:35:40.082Z,25.14
2019-05-15T12:38:13.642Z,25.21
2019-05-15T13:01:32.025Z,25.40
2019-05-15T13:04:05.339Z,25.40
2019-05-15T13:06:48.093Z,25.44
2019-05-15T13:09:13.876Z,25.48
2019-05-15T13:11:48.506Z,25.51
2019-05-15T13:14:23.283Z,25.57
2019-05-15T13:16:58.981Z,25.60
2019-05-15T13:19:32.210Z,25.65
2019-05-15T13:22:17.330Z,25.69
2019-05-15T13:24:40.989Z,25.74
2019-05-15T13:27:14.341Z,25.77
2019-05-15T13:29:48.630Z,25.88
2019-05-15T13:32:22.182Z,25.97
2019-05-15T13:34:55.601Z,26.00
2019-05-15T13:37:30.956Z,26.05
2019-05-15T13:40:05.547Z,26.10
2019-05-15T13:42:39.517Z,26.18
2019-05-15T13:45:13.714Z,26.23
2019-05-15T13:47:48.726Z,26.29
2019-05-15T13:50:22.043Z,26.55
2019-05-15T13:52:55.450Z,26.45
2019-05-15T13:55:36.147Z,26.44
2019-05-15T13:58:04.174Z,26.45
2019-05-15T14:00:38.933Z,26.43
2019-05-15T14:03:12.590Z,26.45
2019-05-15T14:05:49.834Z,26.48
2019-05-15T14:08:22.227Z,26.49
2019-05-15T14:10:58.104Z,26.51
2019-05-15T14:13:30.873Z,26.50
2019-05-15T14:16:04.205Z,26.97
2019-05-15T14:18:39.078Z,26.69
2019-05-15T14:21:12.648Z,26.57
2019-05-15T14:23:47.874Z,26.48
2019-05-15T14:26:23.903Z,26.43
2019-05-15T14:28:58.559Z,26.36
2019-05-15T14:31:31.041Z,26.31
2019-05-15T14:34:04.994Z,26.27
2019-05-15T14:36:38.876Z,26.21
2019-05-15T14:39:12.572Z,26.17
2019-05-15T14:41:45.969Z,26.12
2019-05-15T14:44:21.919Z,26.08
2019-05-15T14:46:58.229Z,26.08
2019-05-15T14:49:34.201Z,26.04
2019-05-15T14:52:09.287Z,26.00
2019-05-15T14:54:42.069Z,25.97
2019-05-15T14:57:15.417Z,25.94
2019-05-15T14:59:49.683Z,25.92
2019-05-15T15:02:23.261Z,25.89
2019-05-15T15:04:59.234Z,26.29
2019-05-15T15:07:31.790Z,26.03
2019-05-15T15:10:07.414Z,25.94
2019-05-15T15:12:40.750Z,26.00
2019-05-15T15:15:14.082Z,25.89
2019-05-15T15:17:50.010Z,25.86
2019-05-15T15:20:23.481Z,26.21
2019-05-15T15:22:58.785Z,25.96
2019-05-15T15:25:32.225Z,25.90
2019-05-15T15:28:08.035Z,25.83
2019-05-15T15:30:40.732Z,25.80
2019-05-15T15:33:14.097Z,25.76
2019-05-15T15:35:48.694Z,25.70
2019-05-15T15:38:38.103Z,25.67
2019-05-15T15:41:00.456Z,25.62
2019-05-15T15:43:34.977Z,25.59
2019-05-15T15:46:08.758Z,25.81
2019-05-15T15:48:42.415Z,25.67
2019-05-15T15:53:42.224Z,25.60
2019-05-15T15:56:18.256Z,25.56
2019-05-15T15:58:50.588Z,25.57
2019-05-15T16:01:27.479Z,25.80
2019-05-15T16:03:59.614Z,25.65
2019-05-15T16:06:32.911Z,25.63
2019-05-15T16:09:08.456Z,25.62
2019-05-15T16:11:41.912Z,25.55
2019-05-15T16:14:18.021Z,25.59
2019-05-15T16:16:51.593Z,25.61
2019-05-15T16:19:24.960Z,25.61
2019-05-15T16:21:59.501Z,25.59
2019-05-15T16:24:33.055Z,25.58
2019-05-15T16:27:08.982Z,25.60
2019-05-15T16:29:41.620Z,25.58
2019-05-15T16:32:14.947Z,25.60
2019-05-15T16:34:48.439Z,25.55
2019-05-15T16:37:22.661Z,25.66
2019-05-15T16:39:57.903Z,25.69
2019-05-15T16:42:31.840Z,25.71
2019-05-15T16:45:09.026Z,25.71
2019-05-15T16:47:41.381Z,25.73
2019-05-15T16:50:14.792Z,25.69
2019-05-15T16:52:49.086Z,25.68
2019-05-15T16:55:22.590Z,25.67
2019-05-15T16:57:58.376Z,25.63
2019-05-15T17:00:31.640Z,25.61
2019-05-15T17:03:13.537Z,25.13
2019-05-15T17:05:40.092Z,25.63
2019-05-15T17:08:13.258Z,25.60
2019-05-15T17:10:48.316Z,25.17
2019-05-15T17:13:21.823Z,25.53
2019-05-15T17:15:55.236Z,25.55
2019-05-15T17:18:28.842Z,25.61
2019-05-15T17:21:02.263Z,25.55
2019-05-15T17:23:38.067Z,25.63
2019-05-15T17:26:10.851Z,25.59
2019-05-15T17:28:44.216Z,25.58
2019-05-15T17:31:18.111Z,25.58
2019-05-15T17:33:51.821Z,25.59
2019-05-15T17:36:25.253Z,25.56
2019-05-15T17:38:58.597Z,25.52
2019-05-15T17:41:31.733Z,25.51
2019-05-15T17:44:05.207Z,25.50
2019-05-15T17:46:38.727Z,25.48
2019-05-15T17:49:15.535Z,25.47
2019-05-15T17:51:48.856Z,25.45
2019-05-15T17:54:23.330Z,25.42
2019-05-15T17:56:58.349Z,25.37
2019-05-15T17:59:31.944Z,25.35
2019-05-15T18:02:05.271Z,25.36
2019-05-15T18:04:38.924Z,25.32
2019-05-15T18:07:12.235Z,25.31
2019-05-15T18:09:51.563Z,25.26
2019-05-15T18:12:20.664Z,25.22
2019-05-15T18:14:53.984Z,24.81
2019-05-15T18:17:27.361Z,25.20
2019-05-15T18:20:02.323Z,25.13
2019-05-15T18:22:37.898Z,25.17
2019-05-15T18:25:11.068Z,25.21
2019-05-15T18:27:44.623Z,25.18
2019-05-15T18:30:18.437Z,25.15
2019-05-15T18:32:51.925Z,25.13
2019-05-15T18:35:25.322Z,25.09
2019-05-15T18:37:59.232Z,25.12
2019-05-15T18:40:32.646Z,25.13
2019-05-15T18:43:06.076Z,25.44
2019-05-15T18:45:39.596Z,25.28
2019-05-15T18:48:13.308Z,25.26
2019-05-15T18:50:48.227Z,25.36
2019-05-15T18:53:21.761Z,25.21
2019-05-15T18:55:55.387Z,25.31
2019-05-15T18:58:32.973Z,25.19
2019-05-15T19:01:09.243Z,25.16
2019-05-15T19:03:42.193Z,25.15
2019-05-15T19:06:18.321Z,25.07
2019-05-15T19:08:53.183Z,25.05
2019-05-15T19:11:25.963Z,25.02
2019-05-15T19:13:59.436Z,24.94
2019-05-15T19:16:32.754Z,25.06
2019-05-15T19:19:07.812Z,25.07
2019-05-15T19:21:41.929Z,25.09
2019-05-15T19:24:18.557Z,25.06
2019-05-15T19:26:52.540Z,25.07
2019-05-15T19:29:28.474Z,25.04
2019-05-15T19:32:02.044Z,25.00
2019-05-15T19:34:35.460Z,24.94
2019-05-15T19:37:08.867Z,24.90
2019-05-15T19:39:42.363Z,24.91
2019-05-15T19:42:17.968Z,24.83
2019-05-15T19:44:50.866Z,24.92
2019-05-15T19:47:24.232Z,24.87
2019-05-15T19:49:57.854Z,24.91
2019-05-15T19:52:31.321Z,24.96
2019-05-15T19:55:05.120Z,25.03
2019-05-15T19:57:39.177Z,24.94
2019-05-15T20:00:13.097Z,24.99
2019-05-15T20:02:48.613Z,24.95
2019-05-15T20:05:21.734Z,24.96
2019-05-15T20:07:55.303Z,24.99
2019-05-15T20:10:29.460Z,24.98
2019-05-15T20:13:03.028Z,25.02
2019-05-15T20:15:37.961Z,24.92
2019-05-15T20:18:13.369Z,24.86
2019-05-15T20:20:47.801Z,24.87
2019-05-15T20:23:21.437Z,24.86
2019-05-15T20:25:54.756Z,24.85
2019-05-15T20:28:28.707Z,24.87
2019-05-15T20:31:02.198Z,24.85
2019-05-15T20:33:37.755Z,24.85
2019-05-15T20:36:10.744Z,24.84
2019-05-15T20:38:44.163Z,24.84
2019-05-15T20:41:18.741Z,24.83
2019-05-15T20:43:52.221Z,24.82
2019-05-15T20:46:25.564Z,24.80
2019-05-15T20:48:58.959Z,24.77
2019-05-15T20:51:32.432Z,25.13
2019-05-15T20:54:05.784Z,24.96
2019-05-15T20:56:39.144Z,24.87
2019-05-15T20:59:12.654Z,24.82
2019-05-15T21:01:48.264Z,24.77
2019-05-15T21:04:23.813Z,24.86
2019-05-15T21:06:57.151Z,24.76
2019-05-15T21:09:31.559Z,24.72
2019-05-15T21:12:05.037Z,24.85
2019-05-15T21:14:40.075Z,24.75
2019-05-15T21:17:15.639Z,24.67
2019-05-15T21:19:49.108Z,24.66
2019-05-15T21:22:22.549Z,24.66
2019-05-15T21:24:55.910Z,24.64
2019-05-15T21:27:32.793Z,24.62
2019-05-15T21:30:04.860Z,24.60
2019-05-15T21:32:38.480Z,24.90
2019-05-15T21:35:11.899Z,24.72
2019-05-15T21:37:45.197Z,24.63
2019-05-15T21:40:19.615Z,24.96
2019-05-15T21:42:53.108Z,24.74
2019-05-15T21:45:28.820Z,24.66
2019-05-15T21:48:01.481Z,24.62
2019-05-15T21:50:34.838Z,24.58
2019-05-15T21:53:08.170Z,24.71
2019-05-15T21:55:41.505Z,24.57
2019-05-15T21:58:14.954Z,24.51
2019-05-15T22:00:51.358Z,24.42
2019-05-15T22:03:24.727Z,24.40
2019-05-15T22:05:58.249Z,24.36
2019-05-15T22:08:31.668Z,24.35
2019-05-15T22:11:05.039Z,24.31
2019-05-15T22:13:39.286Z,24.30
2019-05-15T22:16:13.939Z,24.27
2019-05-15T22:18:47.891Z,24.26
2019-05-15T22:21:21.239Z,24.23
2019-05-15T22:23:59.869Z,24.56
2019-05-15T22:26:30.718Z,24.39
2019-05-15T22:29:05.151Z,24.57
2019-05-15T22:31:40.100Z,24.33
2019-05-15T22:34:14.055Z,24.27
2019-05-15T22:36:50.576Z,24.20
2019-05-15T22:39:22.429Z,24.14
2019-05-15T22:41:55.742Z,24.10
2019-05-15T22:44:28.906Z,24.08
2019-05-15T22:47:02.229Z,24.03
2019-05-15T22:49:37.910Z,24.19
2019-05-15T22:52:10.469Z,24.06
2019-05-15T22:54:47.777Z,24.01
2019-05-15T22:57:20.808Z,23.98
2019-05-15T22:59:54.154Z,23.91
2019-05-15T23:02:27.468Z,23.88
2019-05-15T23:05:00.822Z,23.85
2019-05-15T23:07:34.139Z,23.86
2019-05-15T23:10:08.896Z,23.83
2019-05-15T23:12:42.449Z,23.81
2019-05-15T23:15:18.717Z,24.00
2019-05-15T23:17:51.279Z,23.87
2019-05-15T23:20:24.593Z,23.82
2019-05-15T23:22:59.505Z,23.80
2019-05-15T23:25:32.874Z,23.80
2019-05-15T23:28:08.375Z,23.93
2019-05-15T23:30:41.437Z,23.80
2019-05-15T23:33:14.752Z,23.76
2019-05-15T23:35:48.556Z,24.04
2019-05-15T23:38:22.156Z,23.80
2019-05-15T23:40:55.479Z,23.78
2019-05-15T23:43:28.811Z,23.73
2019-05-15T23:46:02.172Z,23.69
2019-05-15T23:48:38.004Z,23.66
2019-05-15T23:51:10.744Z,23.67
2019-05-15T23:53:44.132Z,23.63
2019-05-15T23:56:19.361Z,23.59
2019-05-15T23:58:52.699Z,23.56
